createdAt,value
2022-10-09T00:01:57.146Z,12.14
2022-10-09T00:04:46.248Z,12.15
2022-10-09T00:07:36.436Z,12.18
2022-10-09T00:13:12.766Z,12.17
2022-10-09T00:18:55.868Z,12.16
2022-10-09T00:24:32.855Z,12.21
2022-10-09T00:30:11.815Z,12.08
2022-10-09T00:35:44.636Z,12.23
2022-10-09T00:41:22.691Z,12.06
2022-10-09T00:45:00.248Z,11.98
2022-10-09T00:47:50.086Z,11.91
2022-10-09T00:50:43.697Z,11.98
2022-10-09T00:56:13.411Z,11.89
2022-10-09T01:01:49.855Z,11.94
2022-10-09T01:04:38.664Z,11.89
2022-10-09T01:10:26.352Z,11.83
2022-10-09T01:13:17.637Z,11.67
2022-10-09T01:19:02.022Z,11.81
2022-10-09T01:21:54.093Z,11.73
2022-10-09T01:27:22.956Z,11.71
2022-10-09T01:32:54.952Z,11.64
2022-10-09T01:38:25.506Z,11.53
2022-10-09T01:43:59.205Z,11.52
2022-10-09T01:46:50.576Z,11.43
2022-10-09T01:52:44.080Z,11.33
2022-10-09T02:01:23.395Z,11.24
2022-10-09T02:04:14.058Z,11.16
2022-10-09T02:09:41.041Z,11.31
2022-10-09T02:15:18.601Z,11.11
2022-10-09T02:23:44.244Z,11.10
2022-10-09T02:29:31.584Z,10.91
2022-10-09T02:32:20.146Z,10.93
2022-10-09T02:37:57.817Z,11.05
2022-10-09T02:40:46.834Z,11.03
2022-10-09T02:46:22.984Z,10.83
2022-10-09T02:52:01.189Z,10.98
2022-10-09T02:54:53.511Z,10.93
2022-10-09T03:00:29.891Z,10.91
2022-10-09T03:03:18.148Z,10.87
2022-10-09T03:08:58.702Z,10.83
2022-10-09T03:11:48.395Z,10.93
2022-10-09T03:17:24.244Z,10.97
2022-10-09T03:20:12.710Z,10.78
2022-10-09T03:25:39.704Z,10.66
2022-10-09T03:31:50.040Z,10.85
2022-10-09T03:37:01.151Z,10.71
2022-10-09T03:42:37.459Z,10.68
2022-10-09T03:48:15.598Z,10.66
2022-10-09T03:51:05.450Z,10.59
2022-10-09T03:56:40.262Z,10.43
2022-10-09T04:02:23.594Z,10.48
2022-10-09T04:08:02.059Z,10.47
2022-10-09T04:13:39.451Z,10.48
2022-10-09T04:19:10.067Z,10.32
2022-10-09T04:24:46.594Z,10.61
2022-10-09T04:30:16.603Z,10.59
2022-10-09T04:35:54.297Z,10.38
2022-10-09T04:41:23.344Z,10.23
2022-10-09T04:46:55.475Z,10.03
2022-10-09T04:52:23.320Z,10.10
2022-10-09T04:55:12.816Z,10.11
2022-10-09T05:00:46.279Z,10.01
2022-10-09T05:06:21.551Z,10.16
2022-10-09T05:11:51.992Z,10.05
2022-10-09T05:14:41.424Z,10.01
2022-10-09T05:20:10.355Z,9.81
2022-10-09T05:25:55.320Z,9.78
2022-10-09T05:28:44.436Z,9.90
2022-10-09T05:31:33.140Z,9.84
2022-10-09T05:37:24.080Z,10.01
2022-10-09T05:42:56.028Z,9.84
2022-10-09T05:45:44.431Z,9.78
2022-10-09T05:48:33.075Z,9.82
2022-10-09T05:54:10.573Z,9.90
2022-10-09T05:59:40.851Z,10.03
2022-10-09T06:05:17.288Z,9.98
2022-10-09T06:10:49.828Z,10.06
2022-10-09T06:13:39.312Z,9.90
2022-10-09T06:19:17.186Z,10.18
2022-10-09T06:22:05.530Z,10.17
2022-10-09T06:24:53.731Z,10.18
2022-10-09T06:27:42.246Z,10.37
2022-10-09T06:30:40.827Z,10.23
2022-10-09T06:33:32.360Z,10.27
2022-10-09T06:39:10.964Z,10.40
2022-10-09T06:44:35.322Z,10.58
2022-10-09T06:47:23.519Z,10.57
2022-10-09T06:50:13.522Z,10.56
2022-10-09T06:55:53.053Z,10.73
2022-10-09T07:01:32.243Z,10.76
2022-10-09T07:04:22.488Z,10.91
2022-10-09T07:07:11.201Z,10.90
2022-10-09T07:10:00.352Z,10.88
2022-10-09T07:18:25.462Z,11.07
2022-10-09T07:24:02.867Z,11.13
2022-10-09T07:29:36.343Z,11.23
2022-10-09T07:32:25.079Z,11.13
2022-10-09T07:40:44.126Z,11.65
2022-10-09T07:46:19.524Z,11.71
2022-10-09T07:51:49.591Z,11.81
2022-10-09T07:54:38.221Z,11.92
2022-10-09T07:57:26.504Z,11.96
2022-10-09T08:03:02.889Z,12.30
2022-10-09T08:08:43.887Z,12.51
2022-10-09T08:14:19.790Z,12.38
2022-10-09T08:19:53.951Z,12.04
2022-10-09T08:25:29.701Z,11.86
2022-10-09T08:28:18.771Z,11.81
2022-10-09T08:31:15.432Z,12.02
2022-10-09T08:36:51.106Z,12.16
2022-10-09T08:42:33.114Z,12.09
2022-10-09T08:45:25.794Z,12.00
2022-10-09T08:51:03.696Z,12.28
2022-10-09T08:56:40.032Z,12.08
2022-10-09T09:02:25.468Z,12.52
2022-10-09T09:08:17.337Z,12.53
2022-10-09T09:14:00.283Z,12.46
2022-10-09T09:19:57.625Z,12.52
2022-10-09T09:28:23.770Z,12.74
2022-10-09T09:34:06.790Z,12.95
2022-10-09T09:45:20.149Z,12.84
2022-10-09T09:51:16.230Z,12.54
2022-10-09T09:53:49.093Z,12.39
2022-10-09T09:57:10.363Z,12.42
2022-10-09T10:02:26.174Z,12.56
2022-10-09T10:08:22.737Z,12.67
2022-10-09T10:14:10.314Z,12.55
2022-10-09T10:19:51.718Z,12.62
2022-10-09T10:22:39.911Z,12.68
2022-10-09T10:28:21.463Z,13.03
2022-10-09T10:36:42.555Z,13.01
2022-10-09T10:39:35.195Z,12.77
2022-10-09T10:45:17.031Z,13.00
2022-10-09T10:48:08.858Z,12.97
2022-10-09T10:56:40.712Z,13.10
2022-10-09T11:02:42.071Z,13.06
2022-10-09T11:14:35.790Z,13.05
2022-10-09T11:20:40.036Z,13.21
2022-10-09T11:26:23.260Z,13.29
2022-10-09T11:32:08.609Z,13.73
2022-10-09T11:37:49.201Z,13.84
2022-10-09T11:43:48.489Z,13.64
2022-10-09T11:46:44.248Z,13.83
2022-10-09T11:55:25.450Z,13.66
2022-10-09T11:58:25.924Z,13.80
2022-10-09T12:04:50.121Z,14.27
2022-10-09T12:10:06.394Z,14.11
2022-10-09T12:16:01.308Z,14.38
2022-10-09T12:18:51.632Z,14.30
2022-10-09T12:21:43.656Z,14.43
2022-10-09T12:24:33.993Z,14.63
2022-10-09T12:27:25.050Z,14.43
2022-10-09T12:30:21.647Z,14.33
2022-10-09T12:36:05.149Z,14.35
2022-10-09T12:44:41.537Z,14.53
2022-10-09T12:50:26.836Z,14.31
2022-10-09T12:53:18.370Z,14.15
2022-10-09T12:58:56.582Z,14.40
2022-10-09T13:04:35.597Z,14.47
2022-10-09T13:10:20.163Z,14.66
2022-10-09T13:13:15.305Z,14.50
2022-10-09T13:19:01.455Z,14.71
2022-10-09T13:24:50.013Z,14.63
2022-10-09T13:27:40.058Z,14.53
2022-10-09T13:30:28.668Z,14.65
2022-10-09T13:33:18.782Z,14.76
2022-10-09T13:36:07.928Z,14.74
2022-10-09T13:41:45.016Z,14.56
2022-10-09T13:44:33.266Z,14.62
2022-10-09T13:50:14.001Z,14.65
2022-10-09T13:55:48.224Z,14.75
2022-10-09T13:58:38.269Z,14.87
2022-10-09T14:01:26.910Z,14.91
2022-10-09T14:07:03.870Z,14.82
2022-10-09T14:09:51.691Z,14.78
2022-10-09T14:15:28.276Z,14.74
2022-10-09T14:21:14.616Z,14.72
2022-10-09T14:24:01.002Z,14.64
2022-10-09T14:29:32.184Z,14.57
2022-10-09T14:32:20.509Z,14.45
2022-10-09T14:37:59.424Z,14.50
2022-10-09T14:43:36.192Z,14.67
2022-10-09T14:49:13.102Z,14.70
2022-10-09T14:54:48.028Z,14.56
2022-10-09T15:03:05.475Z,14.79
2022-10-09T15:08:53.024Z,14.91
2022-10-09T15:14:30.253Z,14.52
2022-10-09T15:17:18.751Z,14.27
2022-10-09T15:20:08.264Z,14.16
2022-10-09T15:22:56.767Z,14.10
2022-10-09T15:28:29.085Z,13.93
2022-10-09T15:31:22.810Z,13.87
2022-10-09T15:36:56.605Z,13.96
2022-10-09T15:39:47.123Z,13.86
2022-10-09T15:45:24.098Z,13.97
2022-10-09T15:51:11.578Z,14.12
2022-10-09T15:56:49.168Z,13.91
2022-10-09T16:02:25.748Z,13.91
2022-10-09T16:08:06.025Z,14.16
2022-10-09T16:13:43.626Z,14.10
2022-10-09T16:19:14.981Z,13.90
2022-10-09T16:22:04.955Z,14.00
2022-10-09T16:24:53.110Z,13.82
2022-10-09T16:33:22.487Z,13.84
2022-10-09T16:39:04.322Z,13.90
2022-10-09T16:47:28.215Z,13.64
2022-10-09T16:53:03.760Z,13.72
2022-10-09T16:58:42.714Z,13.67
2022-10-09T17:04:37.371Z,13.53
2022-10-09T17:10:13.566Z,13.71
2022-10-09T17:15:49.751Z,13.63
2022-10-09T17:21:27.955Z,13.70
2022-10-09T17:24:16.700Z,13.72
2022-10-09T17:27:07.117Z,13.61
2022-10-09T17:32:36.830Z,13.65
2022-10-09T17:35:25.040Z,13.49
2022-10-09T17:41:00.748Z,13.54
2022-10-09T17:46:32.850Z,13.48
2022-10-09T17:54:54.248Z,13.59
2022-10-09T18:03:12.727Z,13.67
2022-10-09T18:08:39.983Z,13.73
2022-10-09T18:14:13.098Z,13.73
2022-10-09T18:19:41.289Z,13.77
2022-10-09T18:25:25.389Z,13.66
2022-10-09T18:31:04.499Z,13.50
2022-10-09T18:39:28.914Z,13.34
2022-10-09T18:45:13.699Z,13.10
2022-10-09T18:50:50.928Z,13.28
2022-10-09T18:53:40.248Z,13.10
2022-10-09T18:59:20.909Z,13.19
2022-10-09T19:02:10.174Z,13.09
2022-10-09T19:04:58.864Z,12.93
2022-10-09T19:10:51.380Z,13.03
2022-10-09T19:16:24.380Z,12.90
2022-10-09T19:19:14.467Z,12.85
2022-10-09T19:22:04.306Z,12.92
2022-10-09T19:24:53.443Z,13.15
2022-10-09T19:27:47.178Z,13.12
2022-10-09T19:33:26.601Z,13.17
2022-10-09T19:41:41.891Z,13.11
2022-10-09T19:47:33.521Z,13.15
2022-10-09T19:53:27.371Z,13.25
2022-10-09T19:58:58.911Z,13.28
2022-10-09T20:07:12.833Z,13.40
2022-10-09T20:10:01.241Z,13.37
2022-10-09T20:12:50.856Z,13.41
2022-10-09T20:18:31.643Z,13.47
2022-10-09T20:24:08.890Z,13.43
2022-10-09T20:29:39.867Z,13.42
2022-10-09T20:32:29.538Z,13.35
2022-10-09T20:38:21.998Z,13.35
2022-10-09T20:44:00.329Z,13.29
2022-10-09T20:49:37.646Z,13.23
2022-10-09T20:52:26.255Z,13.13
2022-10-09T20:55:15.156Z,13.13
2022-10-09T21:00:50.430Z,13.09
2022-10-09T21:06:30.798Z,13.05
2022-10-09T21:12:06.949Z,12.98
2022-10-09T21:18:01.682Z,13.04
2022-10-09T21:20:50.914Z,13.01
2022-10-09T21:23:39.528Z,12.96
2022-10-09T21:29:11.881Z,13.12
2022-10-09T21:32:00.238Z,13.11
2022-10-09T21:34:50.453Z,13.12
2022-10-09T21:40:27.009Z,13.14
2022-10-09T21:46:03.264Z,13.11
2022-10-09T21:48:51.248Z,13.02
2022-10-09T21:54:27.444Z,12.94
2022-10-09T21:57:16.732Z,12.87
2022-10-09T22:02:49.923Z,12.90
2022-10-09T22:05:41.359Z,12.86
2022-10-09T22:11:12.343Z,12.92
2022-10-09T22:16:49.121Z,12.87
2022-10-09T22:22:24.248Z,12.83
2022-10-09T22:25:12.473Z,12.75
2022-10-09T22:28:01.210Z,12.66
2022-10-09T22:33:37.935Z,12.64
2022-10-09T22:36:29.219Z,12.55
2022-10-09T22:42:05.345Z,12.52
2022-10-09T22:47:40.141Z,12.55
2022-10-09T22:53:16.091Z,12.62
2022-10-09T22:58:55.111Z,12.70
2022-10-09T23:04:38.206Z,12.70
2022-10-09T23:07:26.677Z,12.62
2022-10-09T23:10:15.858Z,12.59
2022-10-09T23:15:54.699Z,12.70
2022-10-09T23:21:30.750Z,12.71
2022-10-09T23:27:06.685Z,12.75
2022-10-09T23:32:46.312Z,12.76
2022-10-09T23:38:25.221Z,12.71
2022-10-09T23:44:02.947Z,12.72
2022-10-09T23:49:40.052Z,12.72
2022-10-09T23:55:12.466Z,12.70
2022-10-09T23:58:01.209Z,12.66
